sensor_id;sensor_type;location;lat;lon;timestamp;pressure;altitude;pressure_sealevel;temperature;humidity
63694;BME280;49839;51.798;10.954;2023-04-01T07:09:17;97232.97;;;10.85;nan
63694;BME280;49839;51.798;10.954;2023-04-01T10:38:00;97352.81;;;14.29;nan
63694;BME280;49839;51.798;10.954;2023-04-01T13:41:36;97475.84;;;13.14;nan
63694;BME280;49839;51.798;10.954;2023-04-01T14:25:03;97504.47;;;12.30;nan
63694;BME280;49839;51.798;10.954;2023-04-01T14:30:30;97509.38;;;12.04;nan
63694;BME280;49839;51.798;10.954;2023-04-01T14:33:06;97508.66;;;11.92;nan
63694;BME280;49839;51.798;10.954;2023-04-01T14:35:41;97524.03;;;11.87;nan
63694;BME280;49839;51.798;10.954;2023-04-01T14:38:26;97521.44;;;11.76;nan
63694;BME280;49839;51.798;10.954;2023-04-01T14:41:02;97524.72;;;11.68;nan
63694;BME280;49839;51.798;10.954;2023-04-01T14:43:46;97530.19;;;11.55;nan
63694;BME280;49839;51.798;10.954;2023-04-01T14:48:56;97530.13;;;11.46;nan
63694;BME280;49839;51.798;10.954;2023-04-01T14:51:32;97532.09;;;11.32;nan
63694;BME280;49839;51.798;10.954;2023-04-01T14:54:06;97535.72;;;11.31;nan
63694;BME280;49839;51.798;10.954;2023-04-01T14:56:49;97542.91;;;11.29;nan
63694;BME280;49839;51.798;10.954;2023-04-01T14:59:27;97541.94;;;11.30;nan
63694;BME280;49839;51.798;10.954;2023-04-01T15:01:59;97546.13;;;11.33;nan
63694;BME280;49839;51.798;10.954;2023-04-01T15:04:48;97547.94;;;11.32;nan
63694;BME280;49839;51.798;10.954;2023-04-01T15:10:38;97550.38;;;11.24;nan
63694;BME280;49839;51.798;10.954;2023-04-01T15:13:13;97560.25;;;11.11;nan
63694;BME280;49839;51.798;10.954;2023-04-01T15:15:54;97568.66;;;10.94;nan
63694;BME280;49839;51.798;10.954;2023-04-01T15:18:37;97573.03;;;10.83;nan
63694;BME280;49839;51.798;10.954;2023-04-01T15:21:16;97566.81;;;10.73;nan
63694;BME280;49839;51.798;10.954;2023-04-01T15:23:55;97568.03;;;10.69;nan
63694;BME280;49839;51.798;10.954;2023-04-01T15:26:34;97571.16;;;10.63;nan
63694;BME280;49839;51.798;10.954;2023-04-01T15:29:29;97579.28;;;10.60;nan
63694;BME280;49839;51.798;10.954;2023-04-01T15:32:05;97581.34;;;10.56;nan
63694;BME280;49839;51.798;10.954;2023-04-01T15:34:49;97591.88;;;10.56;nan
63694;BME280;49839;51.798;10.954;2023-04-01T15:37:25;97588.03;;;10.49;nan
63694;BME280;49839;51.798;10.954;2023-04-01T15:39:58;97595.94;;;10.38;nan
63694;BME280;49839;51.798;10.954;2023-04-01T15:42:43;97593.06;;;10.30;nan
63694;BME280;49839;51.798;10.954;2023-04-01T15:45:31;97600.19;;;10.17;nan
63694;BME280;49839;51.798;10.954;2023-04-01T15:48:02;97604.38;;;10.08;nan
63694;BME280;49839;51.798;10.954;2023-04-01T15:50:45;97605.94;;;9.99;nan
63694;BME280;49839;51.798;10.954;2023-04-01T15:53:37;97611.53;;;9.95;nan
63694;BME280;49839;51.798;10.954;2023-04-01T15:56:18;97622.03;;;9.84;nan
63694;BME280;49839;51.798;10.954;2023-04-01T15:58:59;97627.16;;;9.74;nan
63694;BME280;49839;51.798;10.954;2023-04-01T16:01:38;97626.78;;;9.67;nan
63694;BME280;49839;51.798;10.954;2023-04-01T16:04:16;97633.34;;;9.62;nan
63694;BME280;49839;51.798;10.954;2023-04-01T16:06:53;97647.31;;;9.62;nan
63694;BME280;49839;51.798;10.954;2023-04-01T16:09:36;97644.91;;;9.59;nan
63694;BME280;49839;51.798;10.954;2023-04-01T16:12:15;97646.22;;;9.54;nan
63694;BME280;49839;51.798;10.954;2023-04-01T16:14:55;97650.13;;;9.48;nan
63694;BME280;49839;51.798;10.954;2023-04-01T16:17:38;97654.66;;;9.46;nan
63694;BME280;49839;51.798;10.954;2023-04-01T16:20:18;97646.88;;;9.44;nan
63694;BME280;49839;51.798;10.954;2023-04-01T16:22:53;97654.88;;;9.43;nan
63694;BME280;49839;51.798;10.954;2023-04-01T16:25:31;97656.78;;;9.41;nan
63694;BME280;49839;51.798;10.954;2023-04-01T16:28:15;97661.66;;;9.34;nan
63694;BME280;49839;51.798;10.954;2023-04-01T16:30:48;97667.97;;;9.32;nan
63694;BME280;49839;51.798;10.954;2023-04-01T16:33:31;97667.00;;;9.33;nan
63694;BME280;49839;51.798;10.954;2023-04-01T16:36:09;97672.91;;;9.36;nan
63694;BME280;49839;51.798;10.954;2023-04-01T16:38:42;97682.69;;;9.34;nan
63694;BME280;49839;51.798;10.954;2023-04-01T16:41:17;97684.56;;;9.32;nan
63694;BME280;49839;51.798;10.954;2023-04-01T16:43:48;97680.59;;;9.27;nan
63694;BME280;49839;51.798;10.954;2023-04-01T16:46:34;97687.88;;;9.23;nan
63694;BME280;49839;51.798;10.954;2023-04-01T16:49:17;97687.03;;;9.22;nan
63694;BME280;49839;51.798;10.954;2023-04-01T16:51:53;97696.91;;;9.19;nan
63694;BME280;49839;51.798;10.954;2023-04-01T16:54:28;97694.94;;;9.22;nan
63694;BME280;49839;51.798;10.954;2023-04-01T16:57:03;97703.75;;;9.21;nan
63694;BME280;49839;51.798;10.954;2023-04-01T16:59:35;97706.47;;;9.20;nan
63694;BME280;49839;51.798;10.954;2023-04-01T17:02:09;97708.50;;;9.16;nan
63694;BME280;49839;51.798;10.954;2023-04-01T17:04:43;97713.13;;;9.13;nan
63694;BME280;49839;51.798;10.954;2023-04-01T17:07:21;97716.84;;;8.98;nan
63694;BME280;49839;51.798;10.954;2023-04-01T17:10:00;97724.88;;;8.83;nan
63694;BME280;49839;51.798;10.954;2023-04-01T17:12:36;97735.47;;;8.69;nan
63694;BME280;49839;51.798;10.954;2023-04-01T17:15:16;97737.25;;;8.43;nan
63694;BME280;49839;51.798;10.954;2023-04-01T17:17:52;97748.88;;;8.26;nan
63694;BME280;49839;51.798;10.954;2023-04-01T17:20:32;97749.66;;;8.01;nan
63694;BME280;49839;51.798;10.954;2023-04-01T17:23:12;97761.78;;;7.90;nan
63694;BME280;49839;51.798;10.954;2023-04-01T17:25:51;97767.66;;;7.80;nan
63694;BME280;49839;51.798;10.954;2023-04-01T17:28:36;97770.84;;;7.71;nan
63694;BME280;49839;51.798;10.954;2023-04-01T17:31:11;97781.94;;;7.62;nan
63694;BME280;49839;51.798;10.954;2023-04-01T17:33:50;97786.28;;;7.49;nan
63694;BME280;49839;51.798;10.954;2023-04-01T17:36:33;97785.94;;;7.41;nan
63694;BME280;49839;51.798;10.954;2023-04-01T17:39:21;97807.19;;;7.36;nan
63694;BME280;49839;51.798;10.954;2023-04-01T17:41:57;97795.41;;;7.29;nan
63694;BME280;49839;51.798;10.954;2023-04-01T17:44:36;97815.06;;;7.22;nan
63694;BME280;49839;51.798;10.954;2023-04-01T17:47:21;97819.91;;;7.14;nan
63694;BME280;49839;51.798;10.954;2023-04-01T17:49:57;97829.84;;;7.09;nan
63694;BME280;49839;51.798;10.954;2023-04-01T17:52:33;97822.91;;;7.07;nan
63694;BME280;49839;51.798;10.954;2023-04-01T17:55:28;97837.16;;;7.03;nan
63694;BME280;49839;51.798;10.954;2023-04-01T17:58:04;97836.38;;;7.01;nan
63694;BME280;49839;51.798;10.954;2023-04-01T18:00:38;97846.94;;;7.00;nan
63694;BME280;49839;51.798;10.954;2023-04-01T18:03:25;97855.84;;;6.97;nan
63694;BME280;49839;51.798;10.954;2023-04-01T18:06:03;97864.81;;;6.93;nan
63694;BME280;49839;51.798;10.954;2023-04-01T18:08:46;97862.66;;;6.86;nan
63694;BME280;49839;51.798;10.954;2023-04-01T18:11:35;97863.97;;;6.78;nan
63694;BME280;49839;51.798;10.954;2023-04-01T18:14:26;97863.97;;;6.78;nan
63694;BME280;49839;51.798;10.954;2023-04-01T18:17:12;97882.91;;;6.68;nan
63694;BME280;49839;51.798;10.954;2023-04-01T18:19:52;97883.00;;;6.66;nan
63694;BME280;49839;51.798;10.954;2023-04-01T18:22:28;97900.94;;;6.58;nan
63694;BME280;49839;51.798;10.954;2023-04-01T18:25:10;97884.66;;;6.53;nan
63694;BME280;49839;51.798;10.954;2023-04-01T18:27:42;97901.38;;;6.50;nan
63694;BME280;49839;51.798;10.954;2023-04-01T18:30:13;97919.72;;;6.50;nan
63694;BME280;49839;51.798;10.954;2023-04-01T18:35:18;97921.25;;;6.39;nan
63694;BME280;49839;51.798;10.954;2023-04-01T18:37:51;97931.97;;;6.34;nan
63694;BME280;49839;51.798;10.954;2023-04-01T18:40:27;97934.94;;;6.28;nan
63694;BME280;49839;51.798;10.954;2023-04-01T18:43:10;97943.63;;;6.29;nan
63694;BME280;49839;51.798;10.954;2023-04-01T18:45:43;97951.72;;;6.24;nan
63694;BME280;49839;51.798;10.954;2023-04-01T18:48:25;97964.28;;;6.17;nan
63694;BME280;49839;51.798;10.954;2023-04-01T18:50:56;97978.91;;;6.06;nan
63694;BME280;49839;51.798;10.954;2023-04-01T18:53:31;97989.00;;;5.96;nan
63694;BME280;49839;51.798;10.954;2023-04-01T18:56:05;97980.72;;;5.88;nan
63694;BME280;49839;51.798;10.954;2023-04-01T18:58:34;97995.59;;;5.86;nan
63694;BME280;49839;51.798;10.954;2023-04-01T19:01:08;98001.03;;;5.83;nan
63694;BME280;49839;51.798;10.954;2023-04-01T19:03:45;98007.09;;;5.83;nan
63694;BME280;49839;51.798;10.954;2023-04-01T19:06:20;98025.63;;;5.79;nan
63694;BME280;49839;51.798;10.954;2023-04-01T19:08:51;98023.00;;;5.79;nan
63694;BME280;49839;51.798;10.954;2023-04-01T19:11:31;98025.72;;;5.77;nan
63694;BME280;49839;51.798;10.954;2023-04-01T19:14:08;98045.78;;;5.77;nan
63694;BME280;49839;51.798;10.954;2023-04-01T19:16:48;98054.78;;;5.71;nan
63694;BME280;49839;51.798;10.954;2023-04-01T19:19:32;98048.72;;;5.70;nan
63694;BME280;49839;51.798;10.954;2023-04-01T19:22:13;98052.50;;;5.65;nan
63694;BME280;49839;51.798;10.954;2023-04-01T19:25:02;98061.47;;;5.59;nan
63694;BME280;49839;51.798;10.954;2023-04-01T19:27:42;98068.44;;;5.60;nan
63694;BME280;49839;51.798;10.954;2023-04-01T19:30:27;98078.88;;;5.60;nan
63694;BME280;49839;51.798;10.954;2023-04-01T19:33:02;98070.13;;;5.61;nan
63694;BME280;49839;51.798;10.954;2023-04-01T19:35:38;98082.25;;;5.62;nan
63694;BME280;49839;51.798;10.954;2023-04-01T19:38:15;98088.63;;;5.57;nan
63694;BME280;49839;51.798;10.954;2023-04-01T19:40:52;98095.41;;;5.61;nan
63694;BME280;49839;51.798;10.954;2023-04-01T19:43:33;98106.63;;;5.63;nan
63694;BME280;49839;51.798;10.954;2023-04-01T19:46:14;98103.25;;;5.61;nan
63694;BME280;49839;51.798;10.954;2023-04-01T19:48:51;98111.44;;;5.53;nan
63694;BME280;49839;51.798;10.954;2023-04-01T19:51:25;98113.47;;;5.48;nan
63694;BME280;49839;51.798;10.954;2023-04-01T19:53:59;98121.53;;;5.43;nan
63694;BME280;49839;51.798;10.954;2023-04-01T19:56:33;98132.91;;;5.42;nan
63694;BME280;49839;51.798;10.954;2023-04-01T19:59:10;98128.53;;;5.43;nan
63694;BME280;49839;51.798;10.954;2023-04-01T20:01:44;98142.44;;;5.43;nan
63694;BME280;49839;51.798;10.954;2023-04-01T20:04:17;98141.13;;;5.35;nan
63694;BME280;49839;51.798;10.954;2023-04-01T20:06:52;98159.16;;;5.22;nan
63694;BME280;49839;51.798;10.954;2023-04-01T20:09:33;98166.50;;;5.14;nan
63694;BME280;49839;51.798;10.954;2023-04-01T20:12:09;98171.34;;;5.04;nan
63694;BME280;49839;51.798;10.954;2023-04-01T20:14:46;98172.31;;;5.02;nan
63694;BME280;49839;51.798;10.954;2023-04-01T20:17:18;98180.38;;;4.97;nan
63694;BME280;49839;51.798;10.954;2023-04-01T20:19:54;98191.88;;;4.93;nan
63694;BME280;49839;51.798;10.954;2023-04-01T20:22:29;98202.31;;;4.93;nan
63694;BME280;49839;51.798;10.954;2023-04-01T20:25:05;98200.13;;;4.84;nan
63694;BME280;49839;51.798;10.954;2023-04-01T20:27:38;98201.53;;;4.72;nan
63694;BME280;49839;51.798;10.954;2023-04-01T20:30:34;98215.63;;;4.68;nan
63694;BME280;49839;51.798;10.954;2023-04-01T20:33:15;98227.28;;;4.61;nan
63694;BME280;49839;51.798;10.954;2023-04-01T20:35:52;98223.88;;;4.59;nan
63694;BME280;49839;51.798;10.954;2023-04-01T20:38:53;98233.53;;;4.57;nan
63694;BME280;49839;51.798;10.954;2023-04-01T20:41:37;98235.25;;;4.58;nan
63694;BME280;49839;51.798;10.954;2023-04-01T20:44:09;98233.59;;;4.55;nan
63694;BME280;49839;51.798;10.954;2023-04-01T20:46:48;98247.50;;;4.56;nan
63694;BME280;49839;51.798;10.954;2023-04-01T20:49:38;98246.56;;;4.57;nan
63694;BME280;49839;51.798;10.954;2023-04-01T20:52:19;98242.44;;;4.53;nan
63694;BME280;49839;51.798;10.954;2023-04-01T20:55:03;98253.13;;;4.47;nan
63694;BME280;49839;51.798;10.954;2023-04-01T20:57:45;98256.69;;;4.44;nan
63694;BME280;49839;51.798;10.954;2023-04-01T21:00:26;98269.88;;;4.41;nan
63694;BME280;49839;51.798;10.954;2023-04-01T21:03:09;98270.09;;;4.37;nan
63694;BME280;49839;51.798;10.954;2023-04-01T21:06:02;98281.34;;;4.37;nan
63694;BME280;49839;51.798;10.954;2023-04-01T21:08:43;98280.66;;;4.33;nan
63694;BME280;49839;51.798;10.954;2023-04-01T21:11:18;98279.09;;;4.29;nan
63694;BME280;49839;51.798;10.954;2023-04-01T21:13:59;98289.66;;;4.26;nan
63694;BME280;49839;51.798;10.954;2023-04-01T21:16:38;98289.84;;;4.22;nan
63694;BME280;49839;51.798;10.954;2023-04-01T21:19:17;98299.53;;;4.18;nan
63694;BME280;49839;51.798;10.954;2023-04-01T21:22:12;98306.06;;;4.08;nan
63694;BME280;49839;51.798;10.954;2023-04-01T21:24:53;98311.28;;;4.08;nan
63694;BME280;49839;51.798;10.954;2023-04-01T21:27:37;98315.06;;;4.01;nan
63694;BME280;49839;51.798;10.954;2023-04-01T21:30:22;98318.00;;;3.93;nan
63694;BME280;49839;51.798;10.954;2023-04-01T21:33:07;98328.44;;;3.92;nan
63694;BME280;49839;51.798;10.954;2023-04-01T21:35:50;98327.53;;;3.93;nan
63694;BME280;49839;51.798;10.954;2023-04-01T21:38:33;98342.03;;;4.00;nan
63694;BME280;49839;51.798;10.954;2023-04-01T21:41:29;98348.94;;;4.01;nan
63694;BME280;49839;51.798;10.954;2023-04-01T21:50:00;98368.72;;;3.85;nan
63694;BME280;49839;51.798;10.954;2023-04-01T21:53:02;98361.94;;;3.80;nan
63694;BME280;49839;51.798;10.954;2023-04-01T21:55:42;98373.47;;;3.73;nan
63694;BME280;49839;51.798;10.954;2023-04-01T21:58:38;98386.03;;;3.64;nan
63694;BME280;49839;51.798;10.954;2023-04-01T22:01:26;98380.31;;;3.54;nan
63694;BME280;49839;51.798;10.954;2023-04-01T22:04:14;98389.03;;;3.53;nan
63694;BME280;49839;51.798;10.954;2023-04-01T22:06:48;98394.38;;;3.50;nan
63694;BME280;49839;51.798;10.954;2023-04-01T22:09:25;98399.75;;;3.45;nan
63694;BME280;49839;51.798;10.954;2023-04-01T22:11:58;98401.56;;;3.43;nan
63694;BME280;49839;51.798;10.954;2023-04-01T22:14:33;98406.84;;;3.42;nan
63694;BME280;49839;51.798;10.954;2023-04-01T22:17:06;59032.25;;;-144.36;100.00
63694;BME280;49839;51.798;10.954;2023-04-01T22:19:42;76592.78;;;3.38;100.00
63694;BME280;49839;51.798;10.954;2023-04-01T22:22:21;59032.25;;;-144.36;100.00
63694;BME280;49839;51.798;10.954;2023-04-01T22:24:59;59032.25;;;-144.36;100.00
63694;BME280;49839;51.798;10.954;2023-04-01T22:27:35;59032.25;;;-144.36;100.00
63694;BME280;49839;51.798;10.954;2023-04-01T22:32:42;98437.00;;;3.24;nan
63694;BME280;49839;51.798;10.954;2023-04-01T22:35:22;59032.25;;;-144.36;100.00
63694;BME280;49839;51.798;10.954;2023-04-01T22:37:57;98442.66;;;3.12;100.00
63694;BME280;49839;51.798;10.954;2023-04-01T22:40:35;59032.25;;;-144.36;100.00
63694;BME280;49839;51.798;10.954;2023-04-01T22:43:06;98450.56;;;3.09;nan
63694;BME280;49839;51.798;10.954;2023-04-01T22:45:40;98463.56;;;3.09;nan
63694;BME280;49839;51.798;10.954;2023-04-01T22:48:12;98457.50;;;3.08;nan
63694;BME280;49839;51.798;10.954;2023-04-01T22:50:50;98467.03;;;3.09;nan
63694;BME280;49839;51.798;10.954;2023-04-01T22:53:33;59032.25;;;-144.36;100.00
63694;BME280;49839;51.798;10.954;2023-04-01T22:56:07;98474.16;;;3.04;nan
63694;BME280;49839;51.798;10.954;2023-04-01T22:58:41;98478.75;;;2.96;nan
63694;BME280;49839;51.798;10.954;2023-04-01T23:01:14;98472.88;;;2.91;nan
63694;BME280;49839;51.798;10.954;2023-04-01T23:03:44;98487.66;;;2.90;nan
63694;BME280;49839;51.798;10.954;2023-04-01T23:06:17;98493.78;;;2.88;nan
63694;BME280;49839;51.798;10.954;2023-04-01T23:09:08;98502.66;;;2.82;nan
63694;BME280;49839;51.798;10.954;2023-04-01T23:11:45;98516.63;;;2.80;nan
63694;BME280;49839;51.798;10.954;2023-04-01T23:14:30;98502.75;;;2.79;nan
63694;BME280;49839;51.798;10.954;2023-04-01T23:17:09;98503.69;;;2.77;nan
63694;BME280;49839;51.798;10.954;2023-04-01T23:19:46;98512.41;;;2.76;nan
63694;BME280;49839;51.798;10.954;2023-04-01T23:22:25;98517.53;;;2.79;nan
63694;BME280;49839;51.798;10.954;2023-04-01T23:25:00;59032.25;;;-144.36;100.00
63694;BME280;49839;51.798;10.954;2023-04-01T23:27:37;98530.81;;;2.69;nan
63694;BME280;49839;51.798;10.954;2023-04-01T23:30:46;98534.56;;;2.61;nan
63694;BME280;49839;51.798;10.954;2023-04-01T23:33:21;98542.44;;;2.59;nan
63694;BME280;49839;51.798;10.954;2023-04-01T23:35:50;59032.25;;;-144.36;100.00
63694;BME280;49839;51.798;10.954;2023-04-01T23:38:19;98550.13;;;2.62;nan
63694;BME280;49839;51.798;10.954;2023-04-01T23:40:49;98553.78;;;2.57;nan
63694;BME280;49839;51.798;10.954;2023-04-01T23:43:23;98558.09;;;2.58;nan
63694;BME280;49839;51.798;10.954;2023-04-01T23:45:52;98561.63;;;2.55;nan
63694;BME280;49839;51.798;10.954;2023-04-01T23:48:24;98574.69;;;2.54;nan
63694;BME280;49839;51.798;10.954;2023-04-01T23:50:52;98572.94;;;2.54;nan
63694;BME280;49839;51.798;10.954;2023-04-01T23:53:24;98575.59;;;2.53;nan
63694;BME280;49839;51.798;10.954;2023-04-01T23:55:52;98583.28;;;2.56;nan
63694;BME280;49839;51.798;10.954;2023-04-01T23:58:26;98589.34;;;2.56;nan
